sensor_id;sensor_type;location;lat;lon;timestamp;temperature;humidity
14236;DHT22;7202;50.718;7.072;2023-06-22T01:05:22;20.40;99.90
14236;DHT22;7202;50.718;7.072;2023-06-22T01:08:01;20.30;99.90
14236;DHT22;7202;50.718;7.072;2023-06-22T01:10:40;20.40;99.90
14236;DHT22;7202;50.718;7.072;2023-06-22T01:13:16;20.30;99.90
14236;DHT22;7202;50.718;7.072;2023-06-22T01:15:49;20.30;99.90
14236;DHT22;7202;50.718;7.072;2023-06-22T01:18:21;20.30;99.90
14236;DHT22;7202;50.718;7.072;2023-06-22T01:20:54;20.30;99.90
14236;DHT22;7202;50.718;7.072;2023-06-22T01:23:29;20.30;99.90
14236;DHT22;7202;50.718;7.072;2023-06-22T01:26:06;20.30;99.90
14236;DHT22;7202;50.718;7.072;2023-06-22T01:28:45;20.30;99.90
14236;DHT22;7202;50.718;7.072;2023-06-22T01:31:16;20.30;99.90
14236;DHT22;7202;50.718;7.072;2023-06-22T01:33:50;20.30;99.90
14236;DHT22;7202;50.718;7.072;2023-06-22T01:36:20;20.30;99.90
14236;DHT22;7202;50.718;7.072;2023-06-22T01:38:49;20.30;99.90
14236;DHT22;7202;50.718;7.072;2023-06-22T01:41:20;20.30;99.90
14236;DHT22;7202;50.718;7.072;2023-06-22T01:43:51;20.30;99.90
14236;DHT22;7202;50.718;7.072;2023-06-22T01:46:21;20.30;99.90
14236;DHT22;7202;50.718;7.072;2023-06-22T01:48:50;20.30;99.90
14236;DHT22;7202;50.718;7.072;2023-06-22T01:51:20;20.30;99.90
14236;DHT22;7202;50.718;7.072;2023-06-22T01:53:48;20.20;99.90
14236;DHT22;7202;50.718;7.072;2023-06-22T01:56:19;20.30;99.90
14236;DHT22;7202;50.718;7.072;2023-06-22T01:58:54;20.30;99.90
14236;DHT22;7202;50.718;7.072;2023-06-22T02:01:30;20.20;99.90
14236;DHT22;7202;50.718;7.072;2023-06-22T02:04:04;20.20;99.90
14236;DHT22;7202;50.718;7.072;2023-06-22T02:06:37;20.20;99.90
14236;DHT22;7202;50.718;7.072;2023-06-22T02:09:14;20.20;99.90
14236;DHT22;7202;50.718;7.072;2023-06-22T02:11:45;20.20;99.90
14236;DHT22;7202;50.718;7.072;2023-06-22T02:14:16;20.20;99.90
14236;DHT22;7202;50.718;7.072;2023-06-22T02:16:46;20.20;99.90
14236;DHT22;7202;50.718;7.072;2023-06-22T02:19:15;20.20;99.90
14236;DHT22;7202;50.718;7.072;2023-06-22T02:21:45;20.10;99.90
14236;DHT22;7202;50.718;7.072;2023-06-22T02:24:14;20.10;99.90
14236;DHT22;7202;50.718;7.072;2023-06-22T02:26:43;20.10;99.90
14236;DHT22;7202;50.718;7.072;2023-06-22T02:29:13;20.00;99.90
14236;DHT22;7202;50.718;7.072;2023-06-22T02:31:44;20.00;99.90
14236;DHT22;7202;50.718;7.072;2023-06-22T02:34:13;20.00;99.90
14236;DHT22;7202;50.718;7.072;2023-06-22T02:36:45;20.00;99.90
14236;DHT22;7202;50.718;7.072;2023-06-22T02:39:19;20.00;99.90
14236;DHT22;7202;50.718;7.072;2023-06-22T02:41:49;20.00;99.90
14236;DHT22;7202;50.718;7.072;2023-06-22T02:44:19;20.00;99.90
14236;DHT22;7202;50.718;7.072;2023-06-22T02:46:49;20.00;99.90
14236;DHT22;7202;50.718;7.072;2023-06-22T02:49:18;20.10;99.90
14236;DHT22;7202;50.718;7.072;2023-06-22T02:51:47;20.10;99.90
14236;DHT22;7202;50.718;7.072;2023-06-22T02:54:19;20.00;99.90
14236;DHT22;7202;50.718;7.072;2023-06-22T02:56:50;20.00;99.90
14236;DHT22;7202;50.718;7.072;2023-06-22T02:59:21;20.10;99.90
14236;DHT22;7202;50.718;7.072;2023-06-22T03:01:55;20.00;99.90
14236;DHT22;7202;50.718;7.072;2023-06-22T03:04:28;20.00;99.90
14236;DHT22;7202;50.718;7.072;2023-06-22T03:06:58;20.00;99.90
14236;DHT22;7202;50.718;7.072;2023-06-22T03:09:30;20.00;99.90
14236;DHT22;7202;50.718;7.072;2023-06-22T03:11:59;20.00;99.90
14236;DHT22;7202;50.718;7.072;2023-06-22T03:14:37;20.00;99.90
14236;DHT22;7202;50.718;7.072;2023-06-22T03:17:08;20.00;99.90
14236;DHT22;7202;50.718;7.072;2023-06-22T03:19:39;20.00;99.90
14236;DHT22;7202;50.718;7.072;2023-06-22T03:22:07;20.00;99.90
14236;DHT22;7202;50.718;7.072;2023-06-22T03:24:39;20.00;99.90
14236;DHT22;7202;50.718;7.072;2023-06-22T03:27:08;19.90;99.90
14236;DHT22;7202;50.718;7.072;2023-06-22T03:29:36;20.00;99.90
14236;DHT22;7202;50.718;7.072;2023-06-22T03:32:07;19.90;99.90
14236;DHT22;7202;50.718;7.072;2023-06-22T03:34:36;19.90;99.90
14236;DHT22;7202;50.718;7.072;2023-06-22T03:37:04;19.90;99.90
14236;DHT22;7202;50.718;7.072;2023-06-22T03:39:33;19.90;99.90
14236;DHT22;7202;50.718;7.072;2023-06-22T03:42:02;19.90;99.90
14236;DHT22;7202;50.718;7.072;2023-06-22T03:44:30;19.80;99.90
14236;DHT22;7202;50.718;7.072;2023-06-22T03:46:59;19.80;99.90
14236;DHT22;7202;50.718;7.072;2023-06-22T03:49:30;19.80;99.90
14236;DHT22;7202;50.718;7.072;2023-06-22T03:51:59;19.80;99.90
14236;DHT22;7202;50.718;7.072;2023-06-22T03:54:28;19.80;99.90
14236;DHT22;7202;50.718;7.072;2023-06-22T03:56:58;19.70;99.90
14236;DHT22;7202;50.718;7.072;2023-06-22T03:59:26;19.70;99.90
14236;DHT22;7202;50.718;7.072;2023-06-22T04:01:55;19.70;99.90
14236;DHT22;7202;50.718;7.072;2023-06-22T04:04:23;19.70;99.90
14236;DHT22;7202;50.718;7.072;2023-06-22T04:06:53;19.70;99.90
14236;DHT22;7202;50.718;7.072;2023-06-22T04:09:22;19.80;99.90
14236;DHT22;7202;50.718;7.072;2023-06-22T04:11:51;19.80;99.90
14236;DHT22;7202;50.718;7.072;2023-06-22T04:14:19;19.80;99.90
14236;DHT22;7202;50.718;7.072;2023-06-22T04:16:48;19.80;99.90
14236;DHT22;7202;50.718;7.072;2023-06-22T04:19:17;19.80;99.90
14236;DHT22;7202;50.718;7.072;2023-06-22T04:21:45;19.90;99.90
14236;DHT22;7202;50.718;7.072;2023-06-22T04:24:17;19.80;99.90
14236;DHT22;7202;50.718;7.072;2023-06-22T04:26:45;19.80;99.90
14236;DHT22;7202;50.718;7.072;2023-06-22T04:29:14;19.80;99.90
14236;DHT22;7202;50.718;7.072;2023-06-22T04:31:43;19.90;99.90
14236;DHT22;7202;50.718;7.072;2023-06-22T04:34:12;19.90;99.90
14236;DHT22;7202;50.718;7.072;2023-06-22T04:36:43;19.90;99.90
14236;DHT22;7202;50.718;7.072;2023-06-22T04:39:12;19.90;99.90
14236;DHT22;7202;50.718;7.072;2023-06-22T04:41:42;19.90;99.90
14236;DHT22;7202;50.718;7.072;2023-06-22T04:44:11;19.90;99.90
14236;DHT22;7202;50.718;7.072;2023-06-22T04:46:40;19.90;99.90
14236;DHT22;7202;50.718;7.072;2023-06-22T04:49:09;19.90;99.90
14236;DHT22;7202;50.718;7.072;2023-06-22T04:51:40;19.90;99.90
14236;DHT22;7202;50.718;7.072;2023-06-22T04:54:09;19.90;99.90
14236;DHT22;7202;50.718;7.072;2023-06-22T04:56:38;19.90;99.90
14236;DHT22;7202;50.718;7.072;2023-06-22T04:59:09;19.90;99.90
14236;DHT22;7202;50.718;7.072;2023-06-22T05:01:40;19.90;99.90
14236;DHT22;7202;50.718;7.072;2023-06-22T05:04:09;19.90;99.90
14236;DHT22;7202;50.718;7.072;2023-06-22T05:06:38;19.90;99.90
14236;DHT22;7202;50.718;7.072;2023-06-22T05:09:07;20.00;99.90
14236;DHT22;7202;50.718;7.072;2023-06-22T05:11:36;20.10;99.90
14236;DHT22;7202;50.718;7.072;2023-06-22T05:14:05;20.20;99.90
14236;DHT22;7202;50.718;7.072;2023-06-22T05:16:36;20.40;99.90
14236;DHT22;7202;50.718;7.072;2023-06-22T05:19:05;20.60;99.90
14236;DHT22;7202;50.718;7.072;2023-06-22T05:21:34;20.70;99.90
14236;DHT22;7202;50.718;7.072;2023-06-22T05:24:03;20.80;99.90
14236;DHT22;7202;50.718;7.072;2023-06-22T05:26:34;20.80;99.90
14236;DHT22;7202;50.718;7.072;2023-06-22T05:29:03;20.90;99.90
14236;DHT22;7202;50.718;7.072;2023-06-22T05:31:31;21.00;99.90
14236;DHT22;7202;50.718;7.072;2023-06-22T05:34:01;21.10;99.90
14236;DHT22;7202;50.718;7.072;2023-06-22T05:36:30;21.20;99.90
14236;DHT22;7202;50.718;7.072;2023-06-22T05:38:59;21.30;99.90
14236;DHT22;7202;50.718;7.072;2023-06-22T05:41:27;21.30;99.90
14236;DHT22;7202;50.718;7.072;2023-06-22T05:43:56;21.40;99.90
14236;DHT22;7202;50.718;7.072;2023-06-22T05:46:25;21.50;99.90
14236;DHT22;7202;50.718;7.072;2023-06-22T05:48:54;21.60;99.90
14236;DHT22;7202;50.718;7.072;2023-06-22T05:51:24;21.80;99.90
14236;DHT22;7202;50.718;7.072;2023-06-22T05:53:52;21.90;99.90
14236;DHT22;7202;50.718;7.072;2023-06-22T05:56:21;21.90;99.90
14236;DHT22;7202;50.718;7.072;2023-06-22T05:58:50;21.90;99.90
14236;DHT22;7202;50.718;7.072;2023-06-22T06:01:19;21.90;99.90
14236;DHT22;7202;50.718;7.072;2023-06-22T06:03:47;21.90;99.90
14236;DHT22;7202;50.718;7.072;2023-06-22T06:06:17;21.90;99.90
14236;DHT22;7202;50.718;7.072;2023-06-22T06:08:47;21.90;99.90
14236;DHT22;7202;50.718;7.072;2023-06-22T06:11:15;21.80;99.90
14236;DHT22;7202;50.718;7.072;2023-06-22T06:13:44;21.80;99.90
14236;DHT22;7202;50.718;7.072;2023-06-22T06:16:13;21.80;99.90
14236;DHT22;7202;50.718;7.072;2023-06-22T06:18:41;21.80;99.90
14236;DHT22;7202;50.718;7.072;2023-06-22T06:21:10;21.80;99.90
14236;DHT22;7202;50.718;7.072;2023-06-22T06:23:39;21.80;99.90
14236;DHT22;7202;50.718;7.072;2023-06-22T06:26:09;21.80;99.90
14236;DHT22;7202;50.718;7.072;2023-06-22T06:28:37;21.80;99.90
14236;DHT22;7202;50.718;7.072;2023-06-22T06:31:06;21.80;99.90
14236;DHT22;7202;50.718;7.072;2023-06-22T06:33:36;21.90;99.90
14236;DHT22;7202;50.718;7.072;2023-06-22T06:36:05;21.80;99.90
14236;DHT22;7202;50.718;7.072;2023-06-22T06:38:35;21.80;99.90
14236;DHT22;7202;50.718;7.072;2023-06-22T06:41:04;21.80;99.90
14236;DHT22;7202;50.718;7.072;2023-06-22T06:43:34;21.80;99.90
14236;DHT22;7202;50.718;7.072;2023-06-22T06:46:02;21.80;99.90
14236;DHT22;7202;50.718;7.072;2023-06-22T06:48:31;21.80;99.90
14236;DHT22;7202;50.718;7.072;2023-06-22T06:51:00;21.80;99.90
14236;DHT22;7202;50.718;7.072;2023-06-22T06:53:29;21.90;99.90
14236;DHT22;7202;50.718;7.072;2023-06-22T06:55:57;21.90;99.90
14236;DHT22;7202;50.718;7.072;2023-06-22T06:58:26;22.00;99.90
14236;DHT22;7202;50.718;7.072;2023-06-22T07:00:57;22.10;99.90
14236;DHT22;7202;50.718;7.072;2023-06-22T07:03:25;22.10;99.90
14236;DHT22;7202;50.718;7.072;2023-06-22T07:05:54;22.10;99.90
14236;DHT22;7202;50.718;7.072;2023-06-22T07:08:23;22.10;99.90
14236;DHT22;7202;50.718;7.072;2023-06-22T07:10:52;22.10;99.90
14236;DHT22;7202;50.718;7.072;2023-06-22T07:13:21;22.20;99.90
14236;DHT22;7202;50.718;7.072;2023-06-22T07:15:49;22.20;99.90
14236;DHT22;7202;50.718;7.072;2023-06-22T07:18:19;22.30;99.90
14236;DHT22;7202;50.718;7.072;2023-06-22T07:20:48;22.30;99.90
14236;DHT22;7202;50.718;7.072;2023-06-22T07:23:17;22.30;99.90
14236;DHT22;7202;50.718;7.072;2023-06-22T07:25:45;22.30;99.90
14236;DHT22;7202;50.718;7.072;2023-06-22T07:28:14;22.40;99.90
14236;DHT22;7202;50.718;7.072;2023-06-22T07:30:43;22.40;99.90
14236;DHT22;7202;50.718;7.072;2023-06-22T07:33:11;22.50;99.90
14236;DHT22;7202;50.718;7.072;2023-06-22T07:35:42;22.60;99.90
14236;DHT22;7202;50.718;7.072;2023-06-22T07:38:11;22.70;99.90
14236;DHT22;7202;50.718;7.072;2023-06-22T07:40:40;22.80;99.90
14236;DHT22;7202;50.718;7.072;2023-06-22T07:43:08;23.00;99.90
14236;DHT22;7202;50.718;7.072;2023-06-22T07:45:38;23.20;99.90
14236;DHT22;7202;50.718;7.072;2023-06-22T07:48:08;23.30;99.90
14236;DHT22;7202;50.718;7.072;2023-06-22T07:50:36;23.40;99.90
14236;DHT22;7202;50.718;7.072;2023-06-22T07:53:06;23.50;99.90
14236;DHT22;7202;50.718;7.072;2023-06-22T07:55:35;23.50;99.90
14236;DHT22;7202;50.718;7.072;2023-06-22T07:58:03;23.70;99.90
14236;DHT22;7202;50.718;7.072;2023-06-22T08:00:33;23.80;99.90
14236;DHT22;7202;50.718;7.072;2023-06-22T08:03:02;23.80;99.90
14236;DHT22;7202;50.718;7.072;2023-06-22T08:05:32;23.90;99.90
14236;DHT22;7202;50.718;7.072;2023-06-22T08:08:01;24.00;99.90
14236;DHT22;7202;50.718;7.072;2023-06-22T08:10:31;24.00;99.90
14236;DHT22;7202;50.718;7.072;2023-06-22T08:13:00;24.10;99.90
14236;DHT22;7202;50.718;7.072;2023-06-22T08:15:28;24.20;99.90
14236;DHT22;7202;50.718;7.072;2023-06-22T08:17:57;24.20;99.90
14236;DHT22;7202;50.718;7.072;2023-06-22T08:20:27;24.30;99.90
14236;DHT22;7202;50.718;7.072;2023-06-22T08:22:56;24.30;99.90
14236;DHT22;7202;50.718;7.072;2023-06-22T08:25:34;24.40;99.90
14236;DHT22;7202;50.718;7.072;2023-06-22T08:28:03;24.50;99.90
14236;DHT22;7202;50.718;7.072;2023-06-22T08:30:32;24.60;99.90
14236;DHT22;7202;50.718;7.072;2023-06-22T08:33:01;24.70;99.90
14236;DHT22;7202;50.718;7.072;2023-06-22T08:35:30;24.80;99.90
14236;DHT22;7202;50.718;7.072;2023-06-22T08:37:59;24.80;99.90
14236;DHT22;7202;50.718;7.072;2023-06-22T08:40:29;24.80;99.90
14236;DHT22;7202;50.718;7.072;2023-06-22T08:42:59;24.80;99.90
14236;DHT22;7202;50.718;7.072;2023-06-22T08:45:27;24.80;99.90
14236;DHT22;7202;50.718;7.072;2023-06-22T08:47:57;24.80;99.90
14236;DHT22;7202;50.718;7.072;2023-06-22T08:50:26;24.90;99.90
14236;DHT22;7202;50.718;7.072;2023-06-22T08:52:55;25.00;99.90
14236;DHT22;7202;50.718;7.072;2023-06-22T08:55:25;25.00;99.90
14236;DHT22;7202;50.718;7.072;2023-06-22T08:57:54;25.00;99.90
14236;DHT22;7202;50.718;7.072;2023-06-22T09:00:24;25.00;99.90
14236;DHT22;7202;50.718;7.072;2023-06-22T09:02:54;25.00;99.90
14236;DHT22;7202;50.718;7.072;2023-06-22T09:05:26;25.00;99.90
14236;DHT22;7202;50.718;7.072;2023-06-22T09:07:57;25.00;99.90
14236;DHT22;7202;50.718;7.072;2023-06-22T09:10:26;25.00;99.90
14236;DHT22;7202;50.718;7.072;2023-06-22T09:12:56;25.00;99.90
14236;DHT22;7202;50.718;7.072;2023-06-22T09:15:26;25.10;99.90
14236;DHT22;7202;50.718;7.072;2023-06-22T09:17:55;25.10;99.90
14236;DHT22;7202;50.718;7.072;2023-06-22T09:20:25;25.20;99.90
14236;DHT22;7202;50.718;7.072;2023-06-22T09:22:54;25.20;99.90
14236;DHT22;7202;50.718;7.072;2023-06-22T09:25:23;25.40;99.90
14236;DHT22;7202;50.718;7.072;2023-06-22T09:27:52;25.50;99.90
14236;DHT22;7202;50.718;7.072;2023-06-22T09:30:21;25.60;99.90
14236;DHT22;7202;50.718;7.072;2023-06-22T09:32:51;25.70;99.90
14236;DHT22;7202;50.718;7.072;2023-06-22T09:35:20;25.80;99.90
14236;DHT22;7202;50.718;7.072;2023-06-22T09:37:49;25.90;99.90
14236;DHT22;7202;50.718;7.072;2023-06-22T09:40:18;26.00;99.90
14236;DHT22;7202;50.718;7.072;2023-06-22T09:42:47;26.10;99.90
14236;DHT22;7202;50.718;7.072;2023-06-22T09:45:16;26.10;99.90
14236;DHT22;7202;50.718;7.072;2023-06-22T09:47:44;26.10;99.90
14236;DHT22;7202;50.718;7.072;2023-06-22T09:50:14;26.10;99.90
14236;DHT22;7202;50.718;7.072;2023-06-22T09:52:43;26.00;99.90
14236;DHT22;7202;50.718;7.072;2023-06-22T09:55:15;25.90;99.90
14236;DHT22;7202;50.718;7.072;2023-06-22T09:57:44;25.90;99.90
14236;DHT22;7202;50.718;7.072;2023-06-22T10:00:15;25.80;99.90
14236;DHT22;7202;50.718;7.072;2023-06-22T10:02:46;25.70;99.90
14236;DHT22;7202;50.718;7.072;2023-06-22T10:05:16;25.60;99.90
14236;DHT22;7202;50.718;7.072;2023-06-22T10:07:45;25.50;99.90
14236;DHT22;7202;50.718;7.072;2023-06-22T10:10:14;25.50;99.90
14236;DHT22;7202;50.718;7.072;2023-06-22T10:12:47;25.40;99.90
14236;DHT22;7202;50.718;7.072;2023-06-22T10:15:16;25.40;99.90
14236;DHT22;7202;50.718;7.072;2023-06-22T10:17:45;25.30;99.90
14236;DHT22;7202;50.718;7.072;2023-06-22T10:20:16;25.20;99.90
14236;DHT22;7202;50.718;7.072;2023-06-22T10:22:45;25.20;99.90
14236;DHT22;7202;50.718;7.072;2023-06-22T10:25:14;25.10;99.90
14236;DHT22;7202;50.718;7.072;2023-06-22T10:27:43;25.00;99.90
14236;DHT22;7202;50.718;7.072;2023-06-22T10:30:12;24.90;99.90
14236;DHT22;7202;50.718;7.072;2023-06-22T10:32:42;24.80;99.90
14236;DHT22;7202;50.718;7.072;2023-06-22T10:35:11;24.70;99.90
14236;DHT22;7202;50.718;7.072;2023-06-22T10:37:45;24.60;99.90
14236;DHT22;7202;50.718;7.072;2023-06-22T10:40:15;24.50;99.90
14236;DHT22;7202;50.718;7.072;2023-06-22T10:42:44;24.40;99.90
14236;DHT22;7202;50.718;7.072;2023-06-22T10:45:13;24.30;99.90
14236;DHT22;7202;50.718;7.072;2023-06-22T10:47:42;24.30;99.90
14236;DHT22;7202;50.718;7.072;2023-06-22T10:50:11;24.20;99.90
14236;DHT22;7202;50.718;7.072;2023-06-22T10:52:39;24.20;99.90
14236;DHT22;7202;50.718;7.072;2023-06-22T10:55:10;24.00;99.90
14236;DHT22;7202;50.718;7.072;2023-06-22T10:57:39;23.90;99.90
14236;DHT22;7202;50.718;7.072;2023-06-22T11:00:12;23.70;99.90
14236;DHT22;7202;50.718;7.072;2023-06-22T11:02:41;23.50;99.90
14236;DHT22;7202;50.718;7.072;2023-06-22T11:05:09;23.40;99.90
14236;DHT22;7202;50.718;7.072;2023-06-22T11:07:41;23.20;99.90
14236;DHT22;7202;50.718;7.072;2023-06-22T11:10:12;23.10;99.90
14236;DHT22;7202;50.718;7.072;2023-06-22T11:12:41;23.10;99.90
14236;DHT22;7202;50.718;7.072;2023-06-22T11:15:10;23.00;99.90
14236;DHT22;7202;50.718;7.072;2023-06-22T11:17:39;22.90;99.90
14236;DHT22;7202;50.718;7.072;2023-06-22T11:20:08;22.90;99.90
14236;DHT22;7202;50.718;7.072;2023-06-22T11:22:38;23.00;99.90
14236;DHT22;7202;50.718;7.072;2023-06-22T11:25:08;22.90;99.90
14236;DHT22;7202;50.718;7.072;2023-06-22T11:27:39;22.90;99.90
14236;DHT22;7202;50.718;7.072;2023-06-22T11:30:09;22.80;99.90
14236;DHT22;7202;50.718;7.072;2023-06-22T11:32:37;22.80;99.90
14236;DHT22;7202;50.718;7.072;2023-06-22T11:35:07;22.80;99.90
14236;DHT22;7202;50.718;7.072;2023-06-22T11:37:35;22.90;99.90
14236;DHT22;7202;50.718;7.072;2023-06-22T11:40:05;23.00;99.90
14236;DHT22;7202;50.718;7.072;2023-06-22T11:42:36;23.10;99.90
14236;DHT22;7202;50.718;7.072;2023-06-22T11:45:07;23.40;99.90
14236;DHT22;7202;50.718;7.072;2023-06-22T11:47:36;23.50;99.90
14236;DHT22;7202;50.718;7.072;2023-06-22T11:50:06;23.70;99.90
14236;DHT22;7202;50.718;7.072;2023-06-22T11:52:35;23.70;99.90
14236;DHT22;7202;50.718;7.072;2023-06-22T11:55:05;23.80;99.90
14236;DHT22;7202;50.718;7.072;2023-06-22T11:57:35;23.80;99.90
14236;DHT22;7202;50.718;7.072;2023-06-22T12:00:07;23.80;99.90
14236;DHT22;7202;50.718;7.072;2023-06-22T12:02:43;23.70;99.90
14236;DHT22;7202;50.718;7.072;2023-06-22T12:05:12;23.70;99.90
14236;DHT22;7202;50.718;7.072;2023-06-22T12:07:41;23.60;99.90
14236;DHT22;7202;50.718;7.072;2023-06-22T12:10:10;23.60;99.90
14236;DHT22;7202;50.718;7.072;2023-06-22T12:12:38;23.50;99.90
14236;DHT22;7202;50.718;7.072;2023-06-22T12:15:09;23.50;99.90
14236;DHT22;7202;50.718;7.072;2023-06-22T12:17:38;23.50;99.90
14236;DHT22;7202;50.718;7.072;2023-06-22T12:20:08;23.40;99.90
14236;DHT22;7202;50.718;7.072;2023-06-22T12:22:37;23.30;99.90
14236;DHT22;7202;50.718;7.072;2023-06-22T12:25:06;23.30;99.90
14236;DHT22;7202;50.718;7.072;2023-06-22T12:27:35;23.30;99.90
14236;DHT22;7202;50.718;7.072;2023-06-22T12:30:05;23.40;99.90
14236;DHT22;7202;50.718;7.072;2023-06-22T12:32:35;23.50;99.90
14236;DHT22;7202;50.718;7.072;2023-06-22T12:35:05;23.70;99.90
14236;DHT22;7202;50.718;7.072;2023-06-22T12:37:39;23.80;99.90
14236;DHT22;7202;50.718;7.072;2023-06-22T12:40:12;23.90;99.90
14236;DHT22;7202;50.718;7.072;2023-06-22T12:42:40;24.00;99.90
14236;DHT22;7202;50.718;7.072;2023-06-22T12:45:10;24.10;99.90
14236;DHT22;7202;50.718;7.072;2023-06-22T12:47:40;24.10;99.90
14236;DHT22;7202;50.718;7.072;2023-06-22T12:50:09;24.10;99.90
14236;DHT22;7202;50.718;7.072;2023-06-22T12:52:38;24.10;99.90
14236;DHT22;7202;50.718;7.072;2023-06-22T12:55:08;24.10;99.90
14236;DHT22;7202;50.718;7.072;2023-06-22T12:57:37;24.10;99.90
14236;DHT22;7202;50.718;7.072;2023-06-22T13:00:07;24.10;99.90
14236;DHT22;7202;50.718;7.072;2023-06-22T13:02:37;24.10;99.90
14236;DHT22;7202;50.718;7.072;2023-06-22T13:05:08;24.20;99.90
14236;DHT22;7202;50.718;7.072;2023-06-22T13:07:37;24.20;99.90
14236;DHT22;7202;50.718;7.072;2023-06-22T13:10:06;24.30;99.90
14236;DHT22;7202;50.718;7.072;2023-06-22T13:12:35;24.40;99.90
14236;DHT22;7202;50.718;7.072;2023-06-22T13:15:05;24.50;99.90
14236;DHT22;7202;50.718;7.072;2023-06-22T13:17:34;24.60;99.90
14236;DHT22;7202;50.718;7.072;2023-06-22T13:20:03;24.60;99.90
14236;DHT22;7202;50.718;7.072;2023-06-22T13:22:35;24.70;99.90
14236;DHT22;7202;50.718;7.072;2023-06-22T13:25:08;24.80;99.90
14236;DHT22;7202;50.718;7.072;2023-06-22T13:27:39;24.90;99.90
14236;DHT22;7202;50.718;7.072;2023-06-22T13:30:09;24.90;99.90
14236;DHT22;7202;50.718;7.072;2023-06-22T13:32:41;24.90;99.90
14236;DHT22;7202;50.718;7.072;2023-06-22T13:35:11;25.00;99.90
14236;DHT22;7202;50.718;7.072;2023-06-22T13:37:41;25.00;99.90
14236;DHT22;7202;50.718;7.072;2023-06-22T13:40:10;25.10;99.90
14236;DHT22;7202;50.718;7.072;2023-06-22T13:42:39;25.10;99.90
14236;DHT22;7202;50.718;7.072;2023-06-22T13:45:08;25.20;99.90
14236;DHT22;7202;50.718;7.072;2023-06-22T13:47:37;25.20;99.90
14236;DHT22;7202;50.718;7.072;2023-06-22T13:50:06;25.30;99.90
14236;DHT22;7202;50.718;7.072;2023-06-22T13:52:36;25.40;99.90
14236;DHT22;7202;50.718;7.072;2023-06-22T13:55:07;25.40;99.90
14236;DHT22;7202;50.718;7.072;2023-06-22T13:57:36;25.50;99.90
14236;DHT22;7202;50.718;7.072;2023-06-22T14:00:09;25.40;99.90
14236;DHT22;7202;50.718;7.072;2023-06-22T14:02:39;25.30;99.90
14236;DHT22;7202;50.718;7.072;2023-06-22T14:05:09;25.20;99.90
14236;DHT22;7202;50.718;7.072;2023-06-22T14:07:38;25.20;99.90
14236;DHT22;7202;50.718;7.072;2023-06-22T14:10:09;25.10;99.90
14236;DHT22;7202;50.718;7.072;2023-06-22T14:12:38;25.00;99.90
14236;DHT22;7202;50.718;7.072;2023-06-22T14:15:07;24.90;99.90
14236;DHT22;7202;50.718;7.072;2023-06-22T14:17:36;24.80;99.90
14236;DHT22;7202;50.718;7.072;2023-06-22T14:20:06;24.80;99.90
14236;DHT22;7202;50.718;7.072;2023-06-22T14:22:35;24.70;99.90
14236;DHT22;7202;50.718;7.072;2023-06-22T14:25:05;24.60;99.90
14236;DHT22;7202;50.718;7.072;2023-06-22T14:27:35;24.50;99.90
14236;DHT22;7202;50.718;7.072;2023-06-22T14:30:05;24.50;99.90
14236;DHT22;7202;50.718;7.072;2023-06-22T14:32:34;24.40;99.90
14236;DHT22;7202;50.718;7.072;2023-06-22T14:35:03;24.30;99.90
14236;DHT22;7202;50.718;7.072;2023-06-22T14:37:32;24.10;99.90
14236;DHT22;7202;50.718;7.072;2023-06-22T14:40:01;24.00;99.90
14236;DHT22;7202;50.718;7.072;2023-06-22T14:42:29;23.90;99.90
14236;DHT22;7202;50.718;7.072;2023-06-22T14:44:59;23.80;99.90
14236;DHT22;7202;50.718;7.072;2023-06-22T14:47:28;23.70;99.90
14236;DHT22;7202;50.718;7.072;2023-06-22T14:49:57;23.50;99.90
14236;DHT22;7202;50.718;7.072;2023-06-22T14:52:27;23.50;99.90
14236;DHT22;7202;50.718;7.072;2023-06-22T14:54:56;23.30;99.90
14236;DHT22;7202;50.718;7.072;2023-06-22T14:57:24;23.20;99.90
14236;DHT22;7202;50.718;7.072;2023-06-22T14:59:53;23.10;99.90
14236;DHT22;7202;50.718;7.072;2023-06-22T15:02:24;23.00;99.90
14236;DHT22;7202;50.718;7.072;2023-06-22T15:04:52;22.90;99.90
14236;DHT22;7202;50.718;7.072;2023-06-22T15:07:21;22.90;99.90
14236;DHT22;7202;50.718;7.072;2023-06-22T15:09:50;22.80;99.90
14236;DHT22;7202;50.718;7.072;2023-06-22T15:12:18;22.70;99.90
14236;DHT22;7202;50.718;7.072;2023-06-22T15:14:47;22.70;99.90
14236;DHT22;7202;50.718;7.072;2023-06-22T15:17:16;22.70;99.90
14236;DHT22;7202;50.718;7.072;2023-06-22T15:19:45;22.60;99.90
14236;DHT22;7202;50.718;7.072;2023-06-22T15:22:14;22.60;99.90
14236;DHT22;7202;50.718;7.072;2023-06-22T15:24:45;22.50;99.90
14236;DHT22;7202;50.718;7.072;2023-06-22T15:27:15;22.40;99.90
14236;DHT22;7202;50.718;7.072;2023-06-22T15:29:44;22.40;99.90
14236;DHT22;7202;50.718;7.072;2023-06-22T15:32:12;22.30;99.90
14236;DHT22;7202;50.718;7.072;2023-06-22T15:34:41;22.30;99.90
14236;DHT22;7202;50.718;7.072;2023-06-22T15:37:11;22.30;99.90
14236;DHT22;7202;50.718;7.072;2023-06-22T15:39:42;22.20;99.90
14236;DHT22;7202;50.718;7.072;2023-06-22T15:42:11;22.20;99.90
14236;DHT22;7202;50.718;7.072;2023-06-22T15:44:40;22.20;99.90
14236;DHT22;7202;50.718;7.072;2023-06-22T15:47:09;22.10;99.90
14236;DHT22;7202;50.718;7.072;2023-06-22T15:49:37;22.10;99.90
14236;DHT22;7202;50.718;7.072;2023-06-22T15:52:06;22.20;99.90
14236;DHT22;7202;50.718;7.072;2023-06-22T15:54:36;22.20;99.90
14236;DHT22;7202;50.718;7.072;2023-06-22T15:57:05;22.20;99.90
14236;DHT22;7202;50.718;7.072;2023-06-22T15:59:34;22.10;99.90
14236;DHT22;7202;50.718;7.072;2023-06-22T16:02:02;22.10;99.90
14236;DHT22;7202;50.718;7.072;2023-06-22T16:04:31;22.10;99.90
14236;DHT22;7202;50.718;7.072;2023-06-22T16:07:00;22.00;99.90
14236;DHT22;7202;50.718;7.072;2023-06-22T16:09:29;21.90;99.90
14236;DHT22;7202;50.718;7.072;2023-06-22T16:11:59;21.90;99.90
14236;DHT22;7202;50.718;7.072;2023-06-22T16:14:29;21.90;99.90
14236;DHT22;7202;50.718;7.072;2023-06-22T16:16:57;21.90;99.90
14236;DHT22;7202;50.718;7.072;2023-06-22T16:19:28;21.90;99.90
14236;DHT22;7202;50.718;7.072;2023-06-22T16:21:59;21.90;99.90
14236;DHT22;7202;50.718;7.072;2023-06-22T16:24:28;21.90;99.90
14236;DHT22;7202;50.718;7.072;2023-06-22T16:26:57;21.80;99.90
14236;DHT22;7202;50.718;7.072;2023-06-22T16:29:27;21.80;99.90
14236;DHT22;7202;50.718;7.072;2023-06-22T16:31:56;21.80;99.90
14236;DHT22;7202;50.718;7.072;2023-06-22T16:34:24;21.80;99.90
14236;DHT22;7202;50.718;7.072;2023-06-22T16:36:53;21.80;99.90
14236;DHT22;7202;50.718;7.072;2023-06-22T16:39:22;21.80;99.90
14236;DHT22;7202;50.718;7.072;2023-06-22T16:41:51;21.80;99.90
14236;DHT22;7202;50.718;7.072;2023-06-22T16:44:20;21.80;99.90
14236;DHT22;7202;50.718;7.072;2023-06-22T16:46:50;21.80;99.90
14236;DHT22;7202;50.718;7.072;2023-06-22T16:49:22;21.80;99.90
14236;DHT22;7202;50.718;7.072;2023-06-22T16:51:50;21.70;99.90
14236;DHT22;7202;50.718;7.072;2023-06-22T16:54:19;21.80;99.90
14236;DHT22;7202;50.718;7.072;2023-06-22T16:56:48;21.90;99.90
14236;DHT22;7202;50.718;7.072;2023-06-22T16:59:16;21.90;99.90
14236;DHT22;7202;50.718;7.072;2023-06-22T17:01:51;22.00;99.90
14236;DHT22;7202;50.718;7.072;2023-06-22T17:04:24;22.00;99.90